sensor_id;sensor_type;location;lat;lon;timestamp;P1;durP1;ratioP1;P2;durP2;ratioP2
19919;SDS011;10122;50.074;19.920;2022-11-04T00:01:41;26.63;;;13.93;;
19919;SDS011;10122;50.074;19.920;2022-11-04T00:04:08;29.02;;;13.75;;
19919;SDS011;10122;50.074;19.920;2022-11-04T00:06:36;27.02;;;13.85;;
19919;SDS011;10122;50.074;19.920;2022-11-04T00:09:02;29.23;;;13.38;;
19919;SDS011;10122;50.074;19.920;2022-11-04T00:11:29;25.40;;;13.38;;
19919;SDS011;10122;50.074;19.920;2022-11-04T00:14:14;29.25;;;14.40;;
19919;SDS011;10122;50.074;19.920;2022-11-04T00:16:40;25.63;;;14.10;;
19919;SDS011;10122;50.074;19.920;2022-11-04T00:19:24;28.67;;;13.82;;
19919;SDS011;10122;50.074;19.920;2022-11-04T00:21:50;30.83;;;14.05;;
19919;SDS011;10122;50.074;19.920;2022-11-04T00:24:35;26.45;;;13.77;;
19919;SDS011;10122;50.074;19.920;2022-11-04T00:27:07;27.80;;;13.60;;
19919;SDS011;10122;50.074;19.920;2022-11-04T00:29:52;29.30;;;13.63;;
19919;SDS011;10122;50.074;19.920;2022-11-04T00:32:18;28.00;;;14.00;;
19919;SDS011;10122;50.074;19.920;2022-11-04T00:35:02;28.60;;;13.52;;
19919;SDS011;10122;50.074;19.920;2022-11-04T00:37:28;27.02;;;13.13;;
19919;SDS011;10122;50.074;19.920;2022-11-04T00:39:54;27.02;;;13.25;;
19919;SDS011;10122;50.074;19.920;2022-11-04T00:42:19;25.90;;;13.00;;
19919;SDS011;10122;50.074;19.920;2022-11-04T00:44:45;22.13;;;12.75;;
19919;SDS011;10122;50.074;19.920;2022-11-04T00:47:10;23.30;;;12.48;;
19919;SDS011;10122;50.074;19.920;2022-11-04T00:49:36;25.67;;;13.43;;
19919;SDS011;10122;50.074;19.920;2022-11-04T00:52:02;28.25;;;13.65;;
19919;SDS011;10122;50.074;19.920;2022-11-04T00:54:27;27.92;;;12.65;;
19919;SDS011;10122;50.074;19.920;2022-11-04T00:56:53;25.00;;;12.13;;
19919;SDS011;10122;50.074;19.920;2022-11-04T00:59:19;27.52;;;12.80;;
19919;SDS011;10122;50.074;19.920;2022-11-04T01:01:44;24.15;;;12.23;;
19919;SDS011;10122;50.074;19.920;2022-11-04T01:04:10;26.85;;;12.30;;
19919;SDS011;10122;50.074;19.920;2022-11-04T01:06:37;25.20;;;12.50;;
19919;SDS011;10122;50.074;19.920;2022-11-04T01:09:04;23.95;;;11.07;;
19919;SDS011;10122;50.074;19.920;2022-11-04T01:11:34;23.55;;;11.88;;
19919;SDS011;10122;50.074;19.920;2022-11-04T01:14:00;21.90;;;11.60;;
19919;SDS011;10122;50.074;19.920;2022-11-04T01:16:26;22.10;;;10.40;;
19919;SDS011;10122;50.074;19.920;2022-11-04T01:18:52;21.65;;;11.40;;
19919;SDS011;10122;50.074;19.920;2022-11-04T01:21:18;22.85;;;11.90;;
19919;SDS011;10122;50.074;19.920;2022-11-04T01:23:44;26.50;;;11.65;;
19919;SDS011;10122;50.074;19.920;2022-11-04T01:26:18;22.85;;;11.65;;
19919;SDS011;10122;50.074;19.920;2022-11-04T01:28:45;25.60;;;12.07;;
19919;SDS011;10122;50.074;19.920;2022-11-04T01:31:13;23.50;;;11.52;;
19919;SDS011;10122;50.074;19.920;2022-11-04T01:33:41;27.95;;;13.15;;
19919;SDS011;10122;50.074;19.920;2022-11-04T01:36:07;24.48;;;12.18;;
19919;SDS011;10122;50.074;19.920;2022-11-04T01:38:34;23.02;;;12.55;;
19919;SDS011;10122;50.074;19.920;2022-11-04T01:41:00;28.15;;;12.55;;
19919;SDS011;10122;50.074;19.920;2022-11-04T01:51:53;22.98;;;11.32;;
19919;SDS011;10122;50.074;19.920;2022-11-04T01:54:25;22.83;;;11.02;;
19919;SDS011;10122;50.074;19.920;2022-11-04T01:56:51;22.35;;;10.90;;
19919;SDS011;10122;50.074;19.920;2022-11-04T01:59:22;23.48;;;12.10;;
19919;SDS011;10122;50.074;19.920;2022-11-04T02:01:51;20.52;;;9.75;;
19919;SDS011;10122;50.074;19.920;2022-11-04T02:04:18;22.95;;;11.77;;
19919;SDS011;10122;50.074;19.920;2022-11-04T02:06:51;27.58;;;11.75;;
19919;SDS011;10122;50.074;19.920;2022-11-04T02:09:22;21.17;;;11.15;;
19919;SDS011;10122;50.074;19.920;2022-11-04T02:11:50;24.13;;;10.40;;
19919;SDS011;10122;50.074;19.920;2022-11-04T02:14:34;22.83;;;10.95;;
19919;SDS011;10122;50.074;19.920;2022-11-04T02:17:03;25.05;;;12.27;;
19919;SDS011;10122;50.074;19.920;2022-11-04T02:22:35;26.50;;;12.20;;
19919;SDS011;10122;50.074;19.920;2022-11-04T02:30:47;23.48;;;11.95;;
19919;SDS011;10122;50.074;19.920;2022-11-04T02:33:22;23.08;;;11.95;;
19919;SDS011;10122;50.074;19.920;2022-11-04T02:36:01;22.48;;;11.82;;
19919;SDS011;10122;50.074;19.920;2022-11-04T02:38:41;23.38;;;11.38;;
19919;SDS011;10122;50.074;19.920;2022-11-04T02:44:17;27.67;;;12.48;;
19919;SDS011;10122;50.074;19.920;2022-11-04T02:47:10;23.05;;;11.20;;
19919;SDS011;10122;50.074;19.920;2022-11-04T02:49:42;23.52;;;12.45;;
19919;SDS011;10122;50.074;19.920;2022-11-04T02:52:37;22.83;;;12.10;;
19919;SDS011;10122;50.074;19.920;2022-11-04T02:55:09;23.17;;;11.93;;
19919;SDS011;10122;50.074;19.920;2022-11-04T02:57:42;25.05;;;12.43;;
19919;SDS011;10122;50.074;19.920;2022-11-04T03:00:11;24.13;;;12.15;;
19919;SDS011;10122;50.074;19.920;2022-11-04T03:02:42;25.70;;;12.50;;
19919;SDS011;10122;50.074;19.920;2022-11-04T03:05:13;24.60;;;12.65;;
19919;SDS011;10122;50.074;19.920;2022-11-04T03:07:43;24.60;;;12.68;;
19919;SDS011;10122;50.074;19.920;2022-11-04T03:10:15;25.70;;;12.35;;
19919;SDS011;10122;50.074;19.920;2022-11-04T03:12:50;23.35;;;12.30;;
19919;SDS011;10122;50.074;19.920;2022-11-04T03:15:26;23.88;;;12.27;;
19919;SDS011;10122;50.074;19.920;2022-11-04T03:17:59;27.17;;;12.60;;
19919;SDS011;10122;50.074;19.920;2022-11-04T03:20:40;22.10;;;12.60;;
19919;SDS011;10122;50.074;19.920;2022-11-04T03:23:09;22.83;;;12.60;;
19919;SDS011;10122;50.074;19.920;2022-11-04T03:25:36;23.55;;;12.45;;
19919;SDS011;10122;50.074;19.920;2022-11-04T03:30:44;22.10;;;11.57;;
19919;SDS011;10122;50.074;19.920;2022-11-04T03:33:20;24.75;;;12.48;;
19919;SDS011;10122;50.074;19.920;2022-11-04T03:35:52;21.33;;;11.88;;
19919;SDS011;10122;50.074;19.920;2022-11-04T03:38:19;23.80;;;11.73;;
19919;SDS011;10122;50.074;19.920;2022-11-04T03:40:46;23.63;;;12.05;;
19919;SDS011;10122;50.074;19.920;2022-11-04T03:43:16;22.83;;;11.38;;
19919;SDS011;10122;50.074;19.920;2022-11-04T03:45:47;25.25;;;11.88;;
19919;SDS011;10122;50.074;19.920;2022-11-04T03:48:14;23.00;;;11.93;;
19919;SDS011;10122;50.074;19.920;2022-11-04T03:50:41;24.23;;;11.88;;
19919;SDS011;10122;50.074;19.920;2022-11-04T03:53:08;23.70;;;12.05;;
19919;SDS011;10122;50.074;19.920;2022-11-04T03:59:26;24.33;;;12.63;;
19919;SDS011;10122;50.074;19.920;2022-11-04T04:04:28;28.63;;;12.68;;
19919;SDS011;10122;50.074;19.920;2022-11-04T04:07:08;24.88;;;12.38;;
19919;SDS011;10122;50.074;19.920;2022-11-04T04:12:13;26.17;;;12.77;;
19919;SDS011;10122;50.074;19.920;2022-11-04T04:14:50;24.75;;;11.32;;
19919;SDS011;10122;50.074;19.920;2022-11-04T04:17:23;28.55;;;11.90;;
19919;SDS011;10122;50.074;19.920;2022-11-04T04:20:20;23.73;;;11.50;;
19919;SDS011;10122;50.074;19.920;2022-11-04T04:23:05;26.77;;;12.10;;
19919;SDS011;10122;50.074;19.920;2022-11-04T04:25:53;27.75;;;13.43;;
19919;SDS011;10122;50.074;19.920;2022-11-04T04:28:41;25.40;;;12.05;;
19919;SDS011;10122;50.074;19.920;2022-11-04T04:31:09;24.45;;;12.05;;
19919;SDS011;10122;50.074;19.920;2022-11-04T04:33:38;22.00;;;11.50;;
19919;SDS011;10122;50.074;19.920;2022-11-04T04:36:03;23.70;;;12.05;;
19919;SDS011;10122;50.074;19.920;2022-11-04T04:38:33;23.35;;;11.57;;
19919;SDS011;10122;50.074;19.920;2022-11-04T04:41:25;20.90;;;11.00;;
19919;SDS011;10122;50.074;19.920;2022-11-04T04:44:23;20.77;;;11.15;;
19919;SDS011;10122;50.074;19.920;2022-11-04T04:47:11;21.92;;;10.38;;
19919;SDS011;10122;50.074;19.920;2022-11-04T04:49:56;18.33;;;10.13;;
19919;SDS011;10122;50.074;19.920;2022-11-04T04:52:34;20.80;;;10.35;;
19919;SDS011;10122;50.074;19.920;2022-11-04T04:55:06;20.75;;;10.38;;
19919;SDS011;10122;50.074;19.920;2022-11-04T04:57:32;20.42;;;10.02;;
19919;SDS011;10122;50.074;19.920;2022-11-04T04:59:58;22.30;;;10.88;;
19919;SDS011;10122;50.074;19.920;2022-11-04T05:02:24;17.60;;;10.15;;
19919;SDS011;10122;50.074;19.920;2022-11-04T05:04:50;22.42;;;11.45;;
19919;SDS011;10122;50.074;19.920;2022-11-04T05:07:15;20.55;;;9.90;;
19919;SDS011;10122;50.074;19.920;2022-11-04T05:09:41;21.65;;;10.60;;
19919;SDS011;10122;50.074;19.920;2022-11-04T05:12:07;19.42;;;9.63;;
19919;SDS011;10122;50.074;19.920;2022-11-04T05:14:34;19.63;;;9.85;;
19919;SDS011;10122;50.074;19.920;2022-11-04T05:17:00;21.85;;;10.48;;
19919;SDS011;10122;50.074;19.920;2022-11-04T05:19:25;20.35;;;10.63;;
19919;SDS011;10122;50.074;19.920;2022-11-04T05:21:51;20.52;;;10.45;;
19919;SDS011;10122;50.074;19.920;2022-11-04T05:24:17;20.63;;;10.02;;
19919;SDS011;10122;50.074;19.920;2022-11-04T05:26:42;18.08;;;9.88;;
19919;SDS011;10122;50.074;19.920;2022-11-04T05:29:08;20.67;;;9.82;;
19919;SDS011;10122;50.074;19.920;2022-11-04T05:31:34;19.45;;;9.75;;
19919;SDS011;10122;50.074;19.920;2022-11-04T05:34:00;17.55;;;9.52;;
19919;SDS011;10122;50.074;19.920;2022-11-04T05:36:26;19.70;;;9.43;;
19919;SDS011;10122;50.074;19.920;2022-11-04T05:38:52;18.23;;;9.35;;
19919;SDS011;10122;50.074;19.920;2022-11-04T05:41:22;17.73;;;9.23;;
19919;SDS011;10122;50.074;19.920;2022-11-04T05:43:54;18.88;;;8.57;;
19919;SDS011;10122;50.074;19.920;2022-11-04T05:46:21;17.02;;;8.90;;
19919;SDS011;10122;50.074;19.920;2022-11-04T05:48:48;17.35;;;8.95;;
19919;SDS011;10122;50.074;19.920;2022-11-04T05:51:14;17.38;;;9.02;;
19919;SDS011;10122;50.074;19.920;2022-11-04T05:53:40;17.13;;;9.02;;
19919;SDS011;10122;50.074;19.920;2022-11-04T05:56:06;17.58;;;8.43;;
19919;SDS011;10122;50.074;19.920;2022-11-04T05:58:32;16.33;;;8.73;;
19919;SDS011;10122;50.074;19.920;2022-11-04T06:03:51;14.02;;;7.93;;
19919;SDS011;10122;50.074;19.920;2022-11-04T06:06:18;14.75;;;8.65;;
19919;SDS011;10122;50.074;19.920;2022-11-04T06:08:44;22.55;;;9.05;;
19919;SDS011;10122;50.074;19.920;2022-11-04T06:11:10;22.48;;;8.60;;
19919;SDS011;10122;50.074;19.920;2022-11-04T06:13:36;16.05;;;8.80;;
19919;SDS011;10122;50.074;19.920;2022-11-04T06:16:02;15.43;;;8.23;;
19919;SDS011;10122;50.074;19.920;2022-11-04T06:18:28;16.77;;;9.13;;
19919;SDS011;10122;50.074;19.920;2022-11-04T06:23:57;14.70;;;8.30;;
19919;SDS011;10122;50.074;19.920;2022-11-04T06:26:24;15.13;;;8.30;;
19919;SDS011;10122;50.074;19.920;2022-11-04T06:28:51;17.05;;;8.30;;
19919;SDS011;10122;50.074;19.920;2022-11-04T06:31:17;16.55;;;8.23;;
19919;SDS011;10122;50.074;19.920;2022-11-04T06:33:43;22.38;;;8.90;;
19919;SDS011;10122;50.074;19.920;2022-11-04T06:36:11;16.08;;;8.52;;
19919;SDS011;10122;50.074;19.920;2022-11-04T06:38:38;17.02;;;8.75;;
19919;SDS011;10122;50.074;19.920;2022-11-04T06:41:09;19.58;;;8.93;;
19919;SDS011;10122;50.074;19.920;2022-11-04T06:43:37;20.30;;;8.43;;
19919;SDS011;10122;50.074;19.920;2022-11-04T06:46:03;17.40;;;8.27;;
19919;SDS011;10122;50.074;19.920;2022-11-04T06:48:29;16.75;;;8.70;;
19919;SDS011;10122;50.074;19.920;2022-11-04T06:50:58;17.00;;;8.48;;
19919;SDS011;10122;50.074;19.920;2022-11-04T06:53:25;17.10;;;8.48;;
19919;SDS011;10122;50.074;19.920;2022-11-04T06:55:51;16.23;;;8.60;;
19919;SDS011;10122;50.074;19.920;2022-11-04T06:58:18;19.67;;;8.43;;
19919;SDS011;10122;50.074;19.920;2022-11-04T07:00:49;16.27;;;8.25;;
19919;SDS011;10122;50.074;19.920;2022-11-04T07:03:16;17.95;;;8.80;;
19919;SDS011;10122;50.074;19.920;2022-11-04T07:05:42;14.10;;;7.80;;
19919;SDS011;10122;50.074;19.920;2022-11-04T07:08:07;16.38;;;8.18;;
19919;SDS011;10122;50.074;19.920;2022-11-04T07:10:33;19.95;;;9.00;;
19919;SDS011;10122;50.074;19.920;2022-11-04T07:12:59;18.58;;;8.38;;
19919;SDS011;10122;50.074;19.920;2022-11-04T07:15:24;14.02;;;7.82;;
19919;SDS011;10122;50.074;19.920;2022-11-04T07:17:50;15.38;;;8.30;;
19919;SDS011;10122;50.074;19.920;2022-11-04T07:20:16;15.93;;;7.72;;
19919;SDS011;10122;50.074;19.920;2022-11-04T07:22:41;15.20;;;8.25;;
19919;SDS011;10122;50.074;19.920;2022-11-04T07:25:07;17.30;;;8.15;;
19919;SDS011;10122;50.074;19.920;2022-11-04T07:27:33;15.65;;;7.80;;
19919;SDS011;10122;50.074;19.920;2022-11-04T07:29:59;15.45;;;7.93;;
19919;SDS011;10122;50.074;19.920;2022-11-04T07:32:24;16.17;;;7.82;;
19919;SDS011;10122;50.074;19.920;2022-11-04T07:34:50;16.42;;;7.70;;
19919;SDS011;10122;50.074;19.920;2022-11-04T07:37:16;17.85;;;8.07;;
19919;SDS011;10122;50.074;19.920;2022-11-04T07:39:41;17.15;;;7.88;;
19919;SDS011;10122;50.074;19.920;2022-11-04T07:42:07;16.77;;;7.57;;
19919;SDS011;10122;50.074;19.920;2022-11-04T07:44:33;14.18;;;7.70;;
19919;SDS011;10122;50.074;19.920;2022-11-04T07:46:58;15.95;;;8.18;;
19919;SDS011;10122;50.074;19.920;2022-11-04T07:49:24;15.25;;;7.68;;
19919;SDS011;10122;50.074;19.920;2022-11-04T07:51:50;16.00;;;8.27;;
19919;SDS011;10122;50.074;19.920;2022-11-04T07:54:16;17.90;;;7.60;;
19919;SDS011;10122;50.074;19.920;2022-11-04T07:56:42;16.90;;;7.88;;
19919;SDS011;10122;50.074;19.920;2022-11-04T07:59:07;14.50;;;7.72;;
19919;SDS011;10122;50.074;19.920;2022-11-04T08:01:33;17.15;;;7.70;;
19919;SDS011;10122;50.074;19.920;2022-11-04T08:03:59;13.52;;;7.13;;
19919;SDS011;10122;50.074;19.920;2022-11-04T08:06:25;14.30;;;7.43;;
19919;SDS011;10122;50.074;19.920;2022-11-04T08:08:51;14.45;;;7.05;;
19919;SDS011;10122;50.074;19.920;2022-11-04T08:11:18;13.57;;;6.85;;
19919;SDS011;10122;50.074;19.920;2022-11-04T08:13:47;16.00;;;7.45;;
19919;SDS011;10122;50.074;19.920;2022-11-04T08:16:17;13.63;;;7.18;;
19919;SDS011;10122;50.074;19.920;2022-11-04T08:18:45;12.77;;;6.43;;
19919;SDS011;10122;50.074;19.920;2022-11-04T08:21:12;14.25;;;7.10;;
19919;SDS011;10122;50.074;19.920;2022-11-04T08:23:38;12.48;;;6.55;;
19919;SDS011;10122;50.074;19.920;2022-11-04T08:26:08;14.25;;;7.15;;
19919;SDS011;10122;50.074;19.920;2022-11-04T08:28:35;16.52;;;6.80;;
19919;SDS011;10122;50.074;19.920;2022-11-04T08:31:02;11.85;;;6.20;;
19919;SDS011;10122;50.074;19.920;2022-11-04T08:33:34;12.82;;;6.47;;
19919;SDS011;10122;50.074;19.920;2022-11-04T08:36:05;13.63;;;6.32;;
19919;SDS011;10122;50.074;19.920;2022-11-04T08:38:33;12.82;;;7.00;;
19919;SDS011;10122;50.074;19.920;2022-11-04T08:40:59;13.98;;;6.65;;
19919;SDS011;10122;50.074;19.920;2022-11-04T08:43:27;12.82;;;6.82;;
19919;SDS011;10122;50.074;19.920;2022-11-04T08:45:52;11.75;;;6.32;;
19919;SDS011;10122;50.074;19.920;2022-11-04T08:48:18;15.32;;;6.45;;
19919;SDS011;10122;50.074;19.920;2022-11-04T08:50:47;13.50;;;6.32;;
19919;SDS011;10122;50.074;19.920;2022-11-04T08:53:17;10.23;;;5.63;;
19919;SDS011;10122;50.074;19.920;2022-11-04T08:55:43;9.80;;;5.57;;
19919;SDS011;10122;50.074;19.920;2022-11-04T08:58:09;11.52;;;5.60;;
19919;SDS011;10122;50.074;19.920;2022-11-04T09:00:35;14.43;;;5.63;;
19919;SDS011;10122;50.074;19.920;2022-11-04T09:03:01;7.28;;;4.82;;
19919;SDS011;10122;50.074;19.920;2022-11-04T09:05:27;12.20;;;5.68;;
19919;SDS011;10122;50.074;19.920;2022-11-04T09:07:53;9.50;;;5.13;;
19919;SDS011;10122;50.074;19.920;2022-11-04T09:10:19;9.77;;;5.32;;
19919;SDS011;10122;50.074;19.920;2022-11-04T09:12:45;8.25;;;5.07;;
19919;SDS011;10122;50.074;19.920;2022-11-04T09:15:11;9.65;;;5.38;;
19919;SDS011;10122;50.074;19.920;2022-11-04T09:17:36;11.13;;;5.10;;
19919;SDS011;10122;50.074;19.920;2022-11-04T09:20:02;9.38;;;4.93;;
19919;SDS011;10122;50.074;19.920;2022-11-04T09:22:29;8.45;;;5.05;;
19919;SDS011;10122;50.074;19.920;2022-11-04T09:24:56;10.23;;;4.88;;
19919;SDS011;10122;50.074;19.920;2022-11-04T09:27:21;9.75;;;4.70;;
19919;SDS011;10122;50.074;19.920;2022-11-04T09:29:47;9.05;;;4.72;;
19919;SDS011;10122;50.074;19.920;2022-11-04T09:32:13;8.95;;;4.80;;
19919;SDS011;10122;50.074;19.920;2022-11-04T09:34:39;8.23;;;4.50;;
19919;SDS011;10122;50.074;19.920;2022-11-04T09:37:05;8.43;;;4.10;;
19919;SDS011;10122;50.074;19.920;2022-11-04T09:39:30;9.80;;;4.57;;
19919;SDS011;10122;50.074;19.920;2022-11-04T09:45:02;8.27;;;4.40;;
19919;SDS011;10122;50.074;19.920;2022-11-04T09:47:35;6.07;;;4.20;;
19919;SDS011;10122;50.074;19.920;2022-11-04T09:50:04;8.25;;;4.80;;
19919;SDS011;10122;50.074;19.920;2022-11-04T09:52:38;8.00;;;4.63;;
19919;SDS011;10122;50.074;19.920;2022-11-04T09:57:53;8.07;;;4.43;;
19919;SDS011;10122;50.074;19.920;2022-11-04T10:00:21;7.15;;;4.40;;
19919;SDS011;10122;50.074;19.920;2022-11-04T10:08:03;10.95;;;4.55;;
19919;SDS011;10122;50.074;19.920;2022-11-04T10:13:22;6.82;;;4.28;;
19919;SDS011;10122;50.074;19.920;2022-11-04T10:24:08;7.35;;;4.45;;
19919;SDS011;10122;50.074;19.920;2022-11-04T10:26:59;10.15;;;4.10;;
19919;SDS011;10122;50.074;19.920;2022-11-04T10:32:35;7.65;;;4.60;;
19919;SDS011;10122;50.074;19.920;2022-11-04T10:37:50;9.55;;;3.92;;
19919;SDS011;10122;50.074;19.920;2022-11-04T10:40:22;7.38;;;4.18;;
19919;SDS011;10122;50.074;19.920;2022-11-04T10:42:57;6.35;;;4.00;;
19919;SDS011;10122;50.074;19.920;2022-11-04T10:45:29;8.27;;;4.05;;
19919;SDS011;10122;50.074;19.920;2022-11-04T10:48:03;7.60;;;3.80;;
19919;SDS011;10122;50.074;19.920;2022-11-04T10:53:21;7.82;;;4.10;;
19919;SDS011;10122;50.074;19.920;2022-11-04T10:58:28;6.18;;;3.90;;
19919;SDS011;10122;50.074;19.920;2022-11-04T11:00:57;6.32;;;3.85;;
19919;SDS011;10122;50.074;19.920;2022-11-04T11:03:28;7.50;;;4.13;;
19919;SDS011;10122;50.074;19.920;2022-11-04T11:08:46;7.18;;;3.95;;
19919;SDS011;10122;50.074;19.920;2022-11-04T11:11:12;7.25;;;3.97;;
19919;SDS011;10122;50.074;19.920;2022-11-04T11:13:40;6.65;;;3.85;;
19919;SDS011;10122;50.074;19.920;2022-11-04T11:16:08;7.40;;;4.35;;
19919;SDS011;10122;50.074;19.920;2022-11-04T11:18:43;7.63;;;4.05;;
19919;SDS011;10122;50.074;19.920;2022-11-04T11:21:14;8.52;;;4.15;;
19919;SDS011;10122;50.074;19.920;2022-11-04T11:23:46;9.70;;;4.57;;
19919;SDS011;10122;50.074;19.920;2022-11-04T11:26:14;7.95;;;4.40;;
19919;SDS011;10122;50.074;19.920;2022-11-04T11:28:54;6.25;;;4.10;;
19919;SDS011;10122;50.074;19.920;2022-11-04T11:31:26;8.80;;;4.50;;
19919;SDS011;10122;50.074;19.920;2022-11-04T11:34:04;8.80;;;4.35;;
19919;SDS011;10122;50.074;19.920;2022-11-04T11:36:39;9.93;;;4.70;;
19919;SDS011;10122;50.074;19.920;2022-11-04T11:46:53;9.00;;;4.82;;
19919;SDS011;10122;50.074;19.920;2022-11-04T11:49:22;8.43;;;4.80;;
19919;SDS011;10122;50.074;19.920;2022-11-04T11:51:52;9.15;;;4.90;;
19919;SDS011;10122;50.074;19.920;2022-11-04T11:54:32;9.75;;;4.68;;
19919;SDS011;10122;50.074;19.920;2022-11-04T11:57:00;8.23;;;5.20;;
19919;SDS011;10122;50.074;19.920;2022-11-04T11:59:37;8.40;;;4.70;;
19919;SDS011;10122;50.074;19.920;2022-11-04T12:04:50;9.02;;;4.93;;
19919;SDS011;10122;50.074;19.920;2022-11-04T12:10:14;9.20;;;4.65;;
19919;SDS011;10122;50.074;19.920;2022-11-04T12:12:53;9.07;;;4.70;;
19919;SDS011;10122;50.074;19.920;2022-11-04T12:23:28;7.75;;;4.55;;
19919;SDS011;10122;50.074;19.920;2022-11-04T12:40:14;10.80;;;5.20;;
19919;SDS011;10122;50.074;19.920;2022-11-04T12:42:49;10.77;;;5.10;;
19919;SDS011;10122;50.074;19.920;2022-11-04T12:45:43;9.55;;;5.38;;
19919;SDS011;10122;50.074;19.920;2022-11-04T12:48:46;8.50;;;4.78;;
19919;SDS011;10122;50.074;19.920;2022-11-04T13:00:12;11.27;;;5.10;;
19919;SDS011;10122;50.074;19.920;2022-11-04T13:02:42;12.80;;;5.30;;
19919;SDS011;10122;50.074;19.920;2022-11-04T13:08:02;13.43;;;5.20;;
19919;SDS011;10122;50.074;19.920;2022-11-04T13:10:35;9.75;;;4.90;;
19919;SDS011;10122;50.074;19.920;2022-11-04T13:13:03;9.02;;;4.65;;
19919;SDS011;10122;50.074;19.920;2022-11-04T13:15:32;9.10;;;4.50;;
19919;SDS011;10122;50.074;19.920;2022-11-04T13:18:17;10.68;;;5.10;;
19919;SDS011;10122;50.074;19.920;2022-11-04T13:20:47;9.57;;;4.53;;
19919;SDS011;10122;50.074;19.920;2022-11-04T13:23:38;8.73;;;4.50;;
19919;SDS011;10122;50.074;19.920;2022-11-04T13:26:14;9.27;;;4.78;;
19919;SDS011;10122;50.074;19.920;2022-11-04T13:28:42;11.68;;;4.78;;
19919;SDS011;10122;50.074;19.920;2022-11-04T13:31:10;10.02;;;4.75;;
19919;SDS011;10122;50.074;19.920;2022-11-04T13:33:50;9.23;;;4.80;;
19919;SDS011;10122;50.074;19.920;2022-11-04T13:36:46;9.88;;;4.50;;
19919;SDS011;10122;50.074;19.920;2022-11-04T13:39:30;12.35;;;4.28;;
19919;SDS011;10122;50.074;19.920;2022-11-04T13:44:44;10.85;;;4.97;;
19919;SDS011;10122;50.074;19.920;2022-11-04T13:47:22;9.38;;;4.68;;
19919;SDS011;10122;50.074;19.920;2022-11-04T13:53:01;8.38;;;4.57;;
19919;SDS011;10122;50.074;19.920;2022-11-04T13:55:28;8.68;;;4.55;;
19919;SDS011;10122;50.074;19.920;2022-11-04T14:00:23;13.10;;;4.85;;
19919;SDS011;10122;50.074;19.920;2022-11-04T14:03:36;8.77;;;4.40;;
19919;SDS011;10122;50.074;19.920;2022-11-04T14:05:54;8.95;;;4.85;;
19919;SDS011;10122;50.074;19.920;2022-11-04T14:08:26;10.57;;;4.63;;
19919;SDS011;10122;50.074;19.920;2022-11-04T14:18:35;11.45;;;5.15;;
19919;SDS011;10122;50.074;19.920;2022-11-04T14:21:02;11.63;;;4.88;;
19919;SDS011;10122;50.074;19.920;2022-11-04T14:23:29;8.80;;;5.03;;
19919;SDS011;10122;50.074;19.920;2022-11-04T14:26:03;8.60;;;4.93;;
19919;SDS011;10122;50.074;19.920;2022-11-04T14:28:31;10.02;;;4.80;;
19919;SDS011;10122;50.074;19.920;2022-11-04T14:31:01;9.45;;;4.97;;
19919;SDS011;10122;50.074;19.920;2022-11-04T14:39:06;10.45;;;5.18;;
19919;SDS011;10122;50.074;19.920;2022-11-04T14:44:28;9.13;;;5.10;;
19919;SDS011;10122;50.074;19.920;2022-11-04T14:47:26;10.05;;;5.30;;
19919;SDS011;10122;50.074;19.920;2022-11-04T14:55:04;10.15;;;5.72;;
19919;SDS011;10122;50.074;19.920;2022-11-04T15:05:49;11.48;;;5.40;;
19919;SDS011;10122;50.074;19.920;2022-11-04T15:13:26;13.40;;;5.40;;
19919;SDS011;10122;50.074;19.920;2022-11-04T15:15:52;12.40;;;5.47;;
19919;SDS011;10122;50.074;19.920;2022-11-04T15:18:21;9.18;;;5.43;;
19919;SDS011;10122;50.074;19.920;2022-11-04T15:20:56;12.13;;;6.10;;
19919;SDS011;10122;50.074;19.920;2022-11-04T15:23:31;11.90;;;5.95;;
19919;SDS011;10122;50.074;19.920;2022-11-04T15:26:00;10.15;;;5.57;;
19919;SDS011;10122;50.074;19.920;2022-11-04T15:28:28;11.82;;;5.80;;
19919;SDS011;10122;50.074;19.920;2022-11-04T15:33:42;10.00;;;5.50;;
19919;SDS011;10122;50.074;19.920;2022-11-04T15:36:19;12.20;;;6.07;;
19919;SDS011;10122;50.074;19.920;2022-11-04T15:39:38;11.63;;;5.90;;
19919;SDS011;10122;50.074;19.920;2022-11-04T15:41:45;11.57;;;5.93;;
19919;SDS011;10122;50.074;19.920;2022-11-04T15:44:33;13.27;;;5.80;;
19919;SDS011;10122;50.074;19.920;2022-11-04T15:49:41;13.25;;;6.15;;
19919;SDS011;10122;50.074;19.920;2022-11-04T15:52:10;14.63;;;6.43;;
19919;SDS011;10122;50.074;19.920;2022-11-04T15:54:39;15.55;;;7.13;;
19919;SDS011;10122;50.074;19.920;2022-11-04T15:59:51;15.88;;;7.28;;
19919;SDS011;10122;50.074;19.920;2022-11-04T16:07:36;14.52;;;7.57;;
19919;SDS011;10122;50.074;19.920;2022-11-04T16:10:22;14.35;;;7.65;;
19919;SDS011;10122;50.074;19.920;2022-11-04T16:12:50;14.88;;;8.63;;
19919;SDS011;10122;50.074;19.920;2022-11-04T16:15:29;14.95;;;8.23;;
19919;SDS011;10122;50.074;19.920;2022-11-04T16:17:59;16.65;;;8.48;;
19919;SDS011;10122;50.074;19.920;2022-11-04T16:20:25;15.95;;;8.18;;
19919;SDS011;10122;50.074;19.920;2022-11-04T16:22:55;15.15;;;9.00;;
19919;SDS011;10122;50.074;19.920;2022-11-04T16:25:23;17.13;;;8.85;;
19919;SDS011;10122;50.074;19.920;2022-11-04T16:27:49;15.80;;;9.25;;
19919;SDS011;10122;50.074;19.920;2022-11-04T16:30:16;17.45;;;8.80;;
19919;SDS011;10122;50.074;19.920;2022-11-04T16:35:16;19.98;;;10.18;;
19919;SDS011;10122;50.074;19.920;2022-11-04T16:37:42;17.42;;;10.00;;
19919;SDS011;10122;50.074;19.920;2022-11-04T16:40:08;21.45;;;10.20;;
19919;SDS011;10122;50.074;19.920;2022-11-04T16:42:34;20.75;;;10.75;;
19919;SDS011;10122;50.074;19.920;2022-11-04T16:45:02;18.80;;;10.20;;
19919;SDS011;10122;50.074;19.920;2022-11-04T16:47:28;19.17;;;10.25;;
19919;SDS011;10122;50.074;19.920;2022-11-04T16:49:59;20.95;;;10.63;;
19919;SDS011;10122;50.074;19.920;2022-11-04T16:52:25;19.90;;;11.13;;
19919;SDS011;10122;50.074;19.920;2022-11-04T16:54:52;21.98;;;11.10;;
19919;SDS011;10122;50.074;19.920;2022-11-04T16:57:20;20.05;;;11.57;;
19919;SDS011;10122;50.074;19.920;2022-11-04T16:59:47;20.65;;;11.18;;
19919;SDS011;10122;50.074;19.920;2022-11-04T17:02:26;24.27;;;12.18;;
19919;SDS011;10122;50.074;19.920;2022-11-04T17:04:54;23.83;;;12.07;;
19919;SDS011;10122;50.074;19.920;2022-11-04T17:07:21;22.70;;;12.82;;
19919;SDS011;10122;50.074;19.920;2022-11-04T17:09:47;23.17;;;12.65;;
19919;SDS011;10122;50.074;19.920;2022-11-04T17:12:13;20.92;;;11.57;;
19919;SDS011;10122;50.074;19.920;2022-11-04T17:14:39;23.02;;;12.85;;
19919;SDS011;10122;50.074;19.920;2022-11-04T17:17:05;28.60;;;13.02;;
19919;SDS011;10122;50.074;19.920;2022-11-04T17:19:31;24.13;;;12.77;;
19919;SDS011;10122;50.074;19.920;2022-11-04T17:21:57;24.80;;;13.38;;
19919;SDS011;10122;50.074;19.920;2022-11-04T17:24:26;26.75;;;13.52;;
19919;SDS011;10122;50.074;19.920;2022-11-04T17:26:52;24.13;;;13.00;;
19919;SDS011;10122;50.074;19.920;2022-11-04T17:29:17;25.52;;;13.15;;
19919;SDS011;10122;50.074;19.920;2022-11-04T17:31:43;24.02;;;13.10;;
19919;SDS011;10122;50.074;19.920;2022-11-04T17:34:09;26.02;;;13.48;;
19919;SDS011;10122;50.074;19.920;2022-11-04T17:36:34;26.23;;;13.57;;